createdAt,value
2022-12-08T00:00:05.706Z,63.82
2022-12-08T00:02:58.576Z,64.14
2022-12-08T00:05:44.057Z,64.46
2022-12-08T00:08:29.111Z,64.24
2022-12-08T00:10:55.581Z,65.12
2022-12-08T00:13:22.067Z,65.58
2022-12-08T00:15:48.814Z,65.41
2022-12-08T00:18:15.654Z,65.14
2022-12-08T00:20:42.292Z,64.81
2022-12-08T00:23:08.843Z,64.35
2022-12-08T00:25:36.513Z,64.26
2022-12-08T00:28:03.430Z,64.46
2022-12-08T00:30:30.135Z,64.44
2022-12-08T00:32:56.712Z,64.39
2022-12-08T00:35:23.342Z,63.87
2022-12-08T00:37:50.044Z,64.22
2022-12-08T00:40:16.747Z,66.14
2022-12-08T00:42:43.433Z,67.41
2022-12-08T00:45:10.361Z,67.61
2022-12-08T00:47:37.232Z,68.10
2022-12-08T00:50:04.353Z,67.62
2022-12-08T00:52:31.172Z,68.57
2022-12-08T00:54:57.691Z,69.29
2022-12-08T00:57:24.432Z,68.21
2022-12-08T00:59:51.039Z,67.07
2022-12-08T01:02:17.777Z,67.42
2022-12-08T01:04:44.451Z,66.97
2022-12-08T01:07:11.045Z,67.63
2022-12-08T01:09:37.675Z,67.41
2022-12-08T01:12:05.445Z,68.45
2022-12-08T01:14:32.028Z,68.39
2022-12-08T01:16:58.628Z,66.76
2022-12-08T01:19:25.416Z,66.39
2022-12-08T01:21:52.138Z,67.98
2022-12-08T01:24:20.271Z,67.58
2022-12-08T01:26:47.728Z,68.97
2022-12-08T01:29:14.564Z,71.31
2022-12-08T01:31:41.416Z,69.50
2022-12-08T01:34:09.384Z,66.56
2022-12-08T01:36:38.717Z,64.84
2022-12-08T01:39:07.256Z,63.22
2022-12-08T01:41:35.223Z,64.09
2022-12-08T01:44:04.008Z,65.55
2022-12-08T01:46:32.335Z,66.40
2022-12-08T01:49:08.137Z,65.43
2022-12-08T01:51:37.517Z,64.84
2022-12-08T01:54:06.120Z,65.77
2022-12-08T01:56:40.712Z,66.69
2022-12-08T01:59:09.091Z,65.68
2022-12-08T02:01:35.727Z,65.93
2022-12-08T02:04:03.734Z,65.92
2022-12-08T02:06:33.105Z,65.14
2022-12-08T02:09:00.749Z,65.44
2022-12-08T02:11:27.283Z,64.83
2022-12-08T02:13:54.746Z,64.83
2022-12-08T02:16:41.543Z,63.96
2022-12-08T02:19:32.010Z,63.88
2022-12-08T02:22:11.079Z,63.89
2022-12-08T02:24:47.723Z,63.30
2022-12-08T02:27:32.270Z,62.43
2022-12-08T02:30:21.710Z,62.88
2022-12-08T02:33:06.995Z,64.73
2022-12-08T02:35:36.187Z,65.10
2022-12-08T02:38:09.334Z,64.63
2022-12-08T02:40:38.887Z,65.34
2022-12-08T02:43:13.710Z,65.02
2022-12-08T02:45:59.112Z,65.05
2022-12-08T02:48:27.104Z,66.71
2022-12-08T02:50:53.889Z,66.95
2022-12-08T02:53:20.640Z,67.86
2022-12-08T02:55:59.861Z,65.59
2022-12-08T02:58:41.552Z,65.61
2022-12-08T03:01:19.926Z,66.54
2022-12-08T03:03:46.729Z,68.17
2022-12-08T03:06:46.349Z,65.95
2022-12-08T03:09:29.841Z,65.81
2022-12-08T03:12:02.559Z,64.80
2022-12-08T03:14:30.379Z,63.29
2022-12-08T03:16:58.007Z,64.27
2022-12-08T03:19:30.515Z,65.52
2022-12-08T03:22:02.375Z,64.67
2022-12-08T03:24:31.887Z,64.20
2022-12-08T03:27:01.589Z,63.45
2022-12-08T03:29:28.945Z,64.39
2022-12-08T03:31:57.420Z,64.75
2022-12-08T03:34:26.384Z,64.18
2022-12-08T03:36:53.105Z,62.94
2022-12-08T03:39:20.306Z,60.95
2022-12-08T03:41:46.851Z,61.95
2022-12-08T03:44:13.677Z,61.55
2022-12-08T03:46:40.821Z,61.65
2022-12-08T03:49:07.666Z,61.71
2022-12-08T03:51:34.318Z,61.36
2022-12-08T03:54:00.826Z,61.68
2022-12-08T03:56:30.076Z,61.13
2022-12-08T03:58:56.749Z,60.78
2022-12-08T04:01:23.692Z,61.60
2022-12-08T04:03:50.783Z,62.03
2022-12-08T04:06:17.689Z,61.45
2022-12-08T04:08:44.445Z,62.01
2022-12-08T04:11:11.710Z,62.53
2022-12-08T04:13:39.369Z,62.47
2022-12-08T04:16:06.242Z,64.19
2022-12-08T04:18:33.597Z,64.76
2022-12-08T04:21:00.301Z,65.74
2022-12-08T04:23:26.902Z,65.85
2022-12-08T04:25:53.466Z,64.84
2022-12-08T04:28:21.188Z,64.27
2022-12-08T04:30:48.376Z,64.06
2022-12-08T04:33:15.147Z,62.86
2022-12-08T04:35:42.053Z,62.08
2022-12-08T04:38:08.542Z,61.18
2022-12-08T04:40:35.301Z,60.44
2022-12-08T04:43:02.068Z,60.37
2022-12-08T04:45:28.786Z,60.06
2022-12-08T04:47:55.439Z,60.53
2022-12-08T04:50:22.234Z,60.74
2022-12-08T04:52:48.818Z,60.05
2022-12-08T04:55:15.686Z,59.90
2022-12-08T04:57:42.240Z,60.14
2022-12-08T05:00:09.478Z,59.27
2022-12-08T05:02:36.961Z,60.72
2022-12-08T05:05:04.086Z,61.27
2022-12-08T05:07:30.892Z,61.26
2022-12-08T05:09:57.369Z,60.00
2022-12-08T05:12:23.967Z,60.93
2022-12-08T05:14:50.594Z,61.59
2022-12-08T05:17:17.902Z,60.37
2022-12-08T05:19:44.408Z,60.69
2022-12-08T05:22:11.018Z,61.29
2022-12-08T05:24:41.307Z,61.56
2022-12-08T05:27:11.071Z,60.87
2022-12-08T05:29:37.580Z,60.64
2022-12-08T05:32:04.393Z,59.85
2022-12-08T05:34:30.958Z,60.60
2022-12-08T05:36:57.541Z,61.59
2022-12-08T05:39:24.307Z,62.74
2022-12-08T05:41:51.068Z,62.30
2022-12-08T05:44:17.562Z,61.95
2022-12-08T05:46:44.520Z,61.71
2022-12-08T05:49:10.979Z,61.88
2022-12-08T05:51:37.616Z,62.03
2022-12-08T05:54:04.294Z,64.35
2022-12-08T05:56:30.993Z,62.33
2022-12-08T05:58:57.586Z,61.87
2022-12-08T06:01:25.710Z,61.74
2022-12-08T06:03:53.192Z,61.92
2022-12-08T06:06:19.893Z,61.78
2022-12-08T06:08:46.957Z,61.67
2022-12-08T06:11:21.321Z,61.49
2022-12-08T06:13:48.310Z,63.88
2022-12-08T06:16:15.028Z,64.61
2022-12-08T06:18:41.623Z,63.46
2022-12-08T06:21:09.630Z,63.38
2022-12-08T06:23:36.282Z,62.34
2022-12-08T06:26:04.457Z,62.05
2022-12-08T06:28:31.648Z,61.26
2022-12-08T06:30:58.357Z,61.43
2022-12-08T06:33:25.298Z,61.11
2022-12-08T06:35:52.184Z,60.89
2022-12-08T06:38:18.867Z,60.88
2022-12-08T06:40:52.132Z,60.95
2022-12-08T06:43:18.646Z,61.08
2022-12-08T06:45:45.252Z,60.12
2022-12-08T06:48:11.834Z,59.63
2022-12-08T06:50:39.449Z,58.58
2022-12-08T06:53:09.119Z,58.34
2022-12-08T06:55:58.754Z,58.23
2022-12-08T06:58:22.987Z,57.51
2022-12-08T07:00:49.952Z,57.78
2022-12-08T07:03:17.990Z,57.79
2022-12-08T07:05:45.426Z,56.39
2022-12-08T07:08:12.415Z,56.31
2022-12-08T07:10:39.243Z,56.34
2022-12-08T07:13:10.205Z,56.35
2022-12-08T07:15:37.041Z,56.63
2022-12-08T07:18:03.564Z,57.10
2022-12-08T07:20:30.293Z,55.64
2022-12-08T07:22:57.337Z,55.61
2022-12-08T07:25:23.979Z,55.72
2022-12-08T07:27:52.594Z,55.42
2022-12-08T07:30:19.617Z,55.65
2022-12-08T07:32:46.345Z,56.61
2022-12-08T07:35:14.592Z,56.68
2022-12-08T07:37:41.567Z,55.73
2022-12-08T07:40:08.729Z,55.83
2022-12-08T07:42:35.708Z,55.87
2022-12-08T07:45:02.534Z,56.15
2022-12-08T07:47:29.357Z,55.98
2022-12-08T07:49:56.073Z,55.79
2022-12-08T07:52:23.020Z,55.22
2022-12-08T07:54:49.570Z,54.92
2022-12-08T07:57:16.707Z,54.52
2022-12-08T07:59:43.661Z,53.34
2022-12-08T08:02:25.994Z,54.68
2022-12-08T08:04:53.052Z,54.94
2022-12-08T08:07:19.941Z,54.63
2022-12-08T08:09:46.667Z,54.79
2022-12-08T08:12:30.697Z,55.53
2022-12-08T08:14:59.673Z,55.46
2022-12-08T08:17:26.476Z,55.15
2022-12-08T08:19:53.703Z,55.63
2022-12-08T08:22:20.355Z,56.26
2022-12-08T08:24:47.296Z,55.81
2022-12-08T08:27:14.022Z,55.57
2022-12-08T08:29:40.540Z,55.75
2022-12-08T08:32:07.269Z,55.84
2022-12-08T08:34:34.137Z,54.77
2022-12-08T08:37:00.964Z,54.41
2022-12-08T08:39:29.532Z,54.28
2022-12-08T08:41:57.166Z,54.47
2022-12-08T08:44:24.087Z,54.52
2022-12-08T08:46:51.277Z,54.79
2022-12-08T08:49:18.260Z,54.53
2022-12-08T08:51:46.232Z,54.14
2022-12-08T08:54:12.950Z,54.10
2022-12-08T08:56:39.456Z,54.42
2022-12-08T08:59:06.375Z,53.86
2022-12-08T09:01:33.393Z,52.58
2022-12-08T09:04:00.862Z,52.09
2022-12-08T09:06:30.762Z,51.15
2022-12-08T09:08:57.577Z,51.04
2022-12-08T09:11:24.364Z,51.55
2022-12-08T09:13:51.735Z,52.49
2022-12-08T09:16:18.972Z,53.87
2022-12-08T09:18:45.990Z,54.74
2022-12-08T09:21:15.984Z,55.01
2022-12-08T09:23:43.560Z,54.93
2022-12-08T09:26:10.198Z,55.14
2022-12-08T09:28:37.443Z,55.61
2022-12-08T09:31:04.140Z,55.51
2022-12-08T09:33:31.142Z,54.65
2022-12-08T09:36:01.194Z,54.03
2022-12-08T09:38:27.744Z,53.50
2022-12-08T09:40:54.432Z,53.69
2022-12-08T09:43:33.289Z,53.82
2022-12-08T09:46:01.675Z,54.16
2022-12-08T09:48:41.361Z,54.66
2022-12-08T09:51:08.943Z,55.07
2022-12-08T09:53:36.341Z,55.63
2022-12-08T09:56:08.186Z,55.40
2022-12-08T09:58:44.915Z,55.48
2022-12-08T10:01:11.966Z,55.72
2022-12-08T10:03:40.036Z,55.80
2022-12-08T10:06:06.767Z,55.88
2022-12-08T10:08:39.818Z,55.67
2022-12-08T10:11:11.754Z,55.60
2022-12-08T10:13:46.183Z,55.28
2022-12-08T10:16:29.728Z,54.57
2022-12-08T10:19:01.524Z,55.43
2022-12-08T10:21:29.618Z,55.97
2022-12-08T10:24:00.244Z,55.77
2022-12-08T10:26:27.556Z,56.01
2022-12-08T10:29:00.773Z,55.65
2022-12-08T10:31:29.166Z,54.91
2022-12-08T10:34:00.347Z,54.01
2022-12-08T10:36:46.723Z,54.16
2022-12-08T10:39:32.598Z,53.74
2022-12-08T10:42:08.053Z,53.92
2022-12-08T10:44:52.857Z,54.35
2022-12-08T10:47:24.179Z,54.39
2022-12-08T10:50:08.357Z,54.18
2022-12-08T10:52:38.966Z,54.03
2022-12-08T10:55:16.421Z,53.79
2022-12-08T10:57:43.001Z,54.12
2022-12-08T11:00:14.853Z,54.49
2022-12-08T11:03:01.393Z,54.86
2022-12-08T11:05:35.156Z,54.94
2022-12-08T11:08:02.478Z,55.00
2022-12-08T11:10:33.761Z,54.82
2022-12-08T11:13:01.854Z,55.10
2022-12-08T11:15:32.906Z,54.03
2022-12-08T11:18:05.692Z,53.42
2022-12-08T11:20:40.147Z,53.95
2022-12-08T11:23:18.547Z,54.23
2022-12-08T11:25:46.420Z,53.77
2022-12-08T11:28:12.953Z,54.27
2022-12-08T11:30:47.171Z,54.67
2022-12-08T11:33:17.049Z,54.76
2022-12-08T11:35:45.275Z,55.27
2022-12-08T11:38:21.688Z,55.55
2022-12-08T11:40:52.718Z,55.77
2022-12-08T11:43:35.347Z,56.33
2022-12-08T11:46:02.287Z,57.18
2022-12-08T11:48:33.632Z,57.66
2022-12-08T11:51:03.443Z,57.68
2022-12-08T11:53:30.119Z,58.28
2022-12-08T11:55:57.943Z,59.71
2022-12-08T11:58:28.704Z,60.88
2022-12-08T12:00:56.008Z,61.38
2022-12-08T12:03:38.688Z,61.45
2022-12-08T12:06:23.871Z,62.43
2022-12-08T12:08:56.972Z,63.09
2022-12-08T12:11:56.397Z,63.50
2022-12-08T12:14:32.011Z,63.94
2022-12-08T12:17:03.209Z,63.98
2022-12-08T12:19:34.918Z,64.92
2022-12-08T12:22:21.669Z,65.72
2022-12-08T12:24:49.878Z,66.03
2022-12-08T12:27:27.595Z,65.50
2022-12-08T12:29:58.364Z,66.02
2022-12-08T12:32:26.617Z,65.03
2022-12-08T12:34:58.460Z,64.75
2022-12-08T12:37:34.565Z,65.01
2022-12-08T12:40:02.973Z,64.90
2022-12-08T12:42:42.364Z,65.22
2022-12-08T12:45:19.397Z,65.92
2022-12-08T12:47:55.875Z,65.46
2022-12-08T12:50:33.018Z,65.60
2022-12-08T12:53:02.465Z,66.12
2022-12-08T12:55:47.880Z,65.50
2022-12-08T12:58:30.679Z,65.18
2022-12-08T13:01:09.858Z,65.59
2022-12-08T13:03:59.690Z,65.86
2022-12-08T13:06:36.486Z,66.04
2022-12-08T13:09:03.495Z,66.35
2022-12-08T13:11:47.775Z,66.16
2022-12-08T13:14:27.016Z,66.96
2022-12-08T13:16:55.670Z,67.40
2022-12-08T13:19:22.333Z,67.43
2022-12-08T13:21:48.904Z,67.99
2022-12-08T13:24:17.246Z,67.74
2022-12-08T13:26:44.394Z,67.56
2022-12-08T13:29:21.884Z,67.39
2022-12-08T13:31:53.378Z,67.26
2022-12-08T13:34:33.971Z,67.50
2022-12-08T13:37:13.228Z,67.02
2022-12-08T13:39:39.873Z,67.96
2022-12-08T13:42:18.790Z,68.55
2022-12-08T13:45:19.735Z,68.26
2022-12-08T13:48:29.046Z,68.58
2022-12-08T13:59:19.007Z,67.80
2022-12-08T14:01:48.145Z,68.28
2022-12-08T14:04:47.484Z,67.93
2022-12-08T14:07:09.040Z,68.29
2022-12-08T14:09:36.964Z,68.60
2022-12-08T14:12:06.337Z,68.85
2022-12-08T14:17:22.907Z,68.41
2022-12-08T14:20:00.399Z,69.07
2022-12-08T14:22:34.391Z,69.44
2022-12-08T14:25:02.402Z,69.85
2022-12-08T14:27:33.043Z,69.54
2022-12-08T14:30:01.281Z,69.89
2022-12-08T14:32:32.737Z,70.58
2022-12-08T14:35:06.031Z,69.63
2022-12-08T14:37:34.501Z,69.86
2022-12-08T14:40:24.166Z,70.85
2022-12-08T14:43:05.461Z,71.86
2022-12-08T14:45:35.501Z,71.98
2022-12-08T14:48:20.451Z,71.78
2022-12-08T14:50:52.999Z,72.40
2022-12-08T14:53:19.653Z,71.76
2022-12-08T14:55:47.840Z,70.74
2022-12-08T14:58:20.090Z,71.22
2022-12-08T15:00:48.370Z,71.77
2022-12-08T15:03:16.849Z,71.64
2022-12-08T15:05:43.678Z,72.41
2022-12-08T15:08:12.472Z,72.80
2022-12-08T15:10:39.523Z,72.83
2022-12-08T15:13:07.941Z,72.77
2022-12-08T15:15:49.737Z,72.99
2022-12-08T15:18:19.338Z,73.12
2022-12-08T15:20:55.093Z,72.37
2022-12-08T15:23:21.890Z,72.42
2022-12-08T15:25:48.905Z,72.29
2022-12-08T15:28:19.814Z,72.21
2022-12-08T15:30:47.125Z,71.58
2022-12-08T15:33:14.179Z,71.98
2022-12-08T15:35:41.390Z,72.39
2022-12-08T15:38:16.154Z,72.06
2022-12-08T15:40:42.676Z,71.96
2022-12-08T15:43:10.452Z,71.77
2022-12-08T15:45:37.289Z,71.12
2022-12-08T15:48:04.252Z,71.05
2022-12-08T15:50:30.792Z,71.09
2022-12-08T15:52:57.399Z,70.84
2022-12-08T15:55:23.947Z,70.54
2022-12-08T16:00:55.090Z,70.88
2022-12-08T16:09:12.536Z,70.29
2022-12-08T16:12:08.316Z,69.65
2022-12-08T16:17:23.986Z,70.28
2022-12-08T16:19:50.878Z,69.72
2022-12-08T16:25:22.325Z,69.13
2022-12-08T16:28:01.228Z,69.01
2022-12-08T16:30:32.530Z,68.72
2022-12-08T16:32:59.178Z,68.60
2022-12-08T16:35:25.753Z,68.33
2022-12-08T16:37:52.398Z,68.25
2022-12-08T16:40:19.182Z,67.30
2022-12-08T16:42:47.833Z,66.98
2022-12-08T16:45:14.738Z,66.91
2022-12-08T16:47:42.759Z,67.19
2022-12-08T16:50:11.471Z,67.30
2022-12-08T16:52:38.295Z,68.00
2022-12-08T16:55:09.398Z,68.11
2022-12-08T16:57:35.979Z,68.34
2022-12-08T17:00:04.605Z,68.03
2022-12-08T17:02:31.360Z,68.24
2022-12-08T17:04:58.496Z,67.41
2022-12-08T17:07:25.215Z,67.76
2022-12-08T17:09:51.751Z,67.04
2022-12-08T17:12:18.287Z,66.22
2022-12-08T17:14:44.820Z,65.84
2022-12-08T17:17:11.601Z,64.73
2022-12-08T17:19:40.655Z,65.20
2022-12-08T17:22:07.313Z,65.71
2022-12-08T17:24:34.133Z,65.84
2022-12-08T17:27:03.684Z,66.03
2022-12-08T17:29:31.301Z,66.13
2022-12-08T17:31:58.453Z,66.95
2022-12-08T17:34:25.290Z,67.33
2022-12-08T17:36:52.013Z,67.22
2022-12-08T17:39:19.302Z,66.91
2022-12-08T17:41:46.325Z,66.90
2022-12-08T17:44:14.906Z,67.48
2022-12-08T17:46:45.258Z,67.93
2022-12-08T17:49:20.190Z,67.78
2022-12-08T17:51:47.516Z,67.57
2022-12-08T17:54:14.649Z,67.49
2022-12-08T17:56:41.604Z,68.65
2022-12-08T17:59:08.452Z,70.45
2022-12-08T18:01:35.100Z,70.99
2022-12-08T18:04:02.516Z,71.71
2022-12-08T18:06:31.286Z,72.58
2022-12-08T18:08:59.044Z,71.92
2022-12-08T18:11:26.710Z,71.77
2022-12-08T18:13:54.272Z,73.43
2022-12-08T18:16:22.241Z,73.37
2022-12-08T18:18:49.333Z,73.04
2022-12-08T18:21:22.876Z,74.52
2022-12-08T18:23:50.317Z,72.75
2022-12-08T18:26:16.955Z,73.18
2022-12-08T18:28:43.699Z,72.86
2022-12-08T18:31:15.359Z,72.70
2022-12-08T18:33:42.694Z,73.22
2022-12-08T18:36:10.823Z,72.88
2022-12-08T18:38:37.724Z,73.34
2022-12-08T18:41:08.685Z,73.47
2022-12-08T18:43:36.025Z,73.26
2022-12-08T18:46:04.022Z,73.94
2022-12-08T18:48:30.713Z,75.65
2022-12-08T18:50:57.337Z,73.77
2022-12-08T18:53:24.251Z,74.33
2022-12-08T18:55:50.790Z,75.06
2022-12-08T18:58:18.152Z,75.09
2022-12-08T19:00:45.069Z,75.31
2022-12-08T19:03:11.684Z,76.43
2022-12-08T19:05:38.300Z,75.46
2022-12-08T19:08:05.559Z,76.67
2022-12-08T19:10:39.084Z,76.05
2022-12-08T19:13:05.923Z,76.91
2022-12-08T19:15:33.729Z,79.19
2022-12-08T19:18:00.966Z,78.57
2022-12-08T19:20:27.688Z,78.52
2022-12-08T19:22:54.676Z,79.31
2022-12-08T19:25:21.522Z,78.78
2022-12-08T19:27:48.253Z,79.42
2022-12-08T19:30:15.289Z,79.89
2022-12-08T19:32:42.093Z,80.82
2022-12-08T19:35:16.331Z,81.17
2022-12-08T19:37:42.966Z,80.66
2022-12-08T19:40:30.630Z,79.15
2022-12-08T19:43:23.586Z,78.90
2022-12-08T19:45:50.287Z,79.02
2022-12-08T19:48:16.967Z,79.04
2022-12-08T19:50:43.596Z,78.56
2022-12-08T19:53:11.948Z,77.63
2022-12-08T19:55:38.782Z,77.30
2022-12-08T19:58:05.756Z,76.79
2022-12-08T20:00:33.004Z,76.32
2022-12-08T20:03:01.177Z,75.89
2022-12-08T20:05:29.125Z,75.78
2022-12-08T20:07:56.133Z,76.14
2022-12-08T20:10:27.659Z,76.50
2022-12-08T20:13:15.643Z,75.87
2022-12-08T20:15:42.947Z,76.02
2022-12-08T20:18:10.530Z,74.34
2022-12-08T20:20:38.732Z,73.68
2022-12-08T20:23:05.912Z,73.16
2022-12-08T20:25:32.944Z,72.84
2022-12-08T20:27:59.671Z,72.90
2022-12-08T20:30:26.425Z,72.93
2022-12-08T20:32:53.181Z,73.23
2022-12-08T20:35:20.093Z,75.57
2022-12-08T20:37:46.685Z,75.80
2022-12-08T20:40:13.443Z,74.81
2022-12-08T20:42:39.990Z,75.77
2022-12-08T20:45:09.009Z,75.41
2022-12-08T20:47:36.341Z,74.13
2022-12-08T20:50:04.493Z,73.32
2022-12-08T20:52:31.929Z,73.00
2022-12-08T20:54:58.872Z,72.62
2022-12-08T20:57:26.002Z,72.49
2022-12-08T20:59:53.662Z,73.29
2022-12-08T21:02:20.356Z,74.22
2022-12-08T21:04:47.408Z,74.70
2022-12-08T21:07:14.195Z,74.84
2022-12-08T21:09:41.173Z,74.52
2022-12-08T21:12:08.208Z,74.13
2022-12-08T21:14:35.116Z,73.93
2022-12-08T21:17:02.338Z,74.44
2022-12-08T21:19:29.239Z,74.83
2022-12-08T21:21:56.076Z,74.54
2022-12-08T21:24:23.130Z,74.28
2022-12-08T21:26:50.156Z,74.47
2022-12-08T21:29:16.688Z,73.46
2022-12-08T21:31:43.357Z,73.69
2022-12-08T21:34:10.830Z,73.78
2022-12-08T21:36:37.601Z,74.08
2022-12-08T21:39:10.588Z,74.32
2022-12-08T21:41:56.666Z,74.65
2022-12-08T21:44:23.801Z,74.54
2022-12-08T21:46:50.383Z,74.81
2022-12-08T21:49:17.083Z,75.40
2022-12-08T21:51:43.837Z,76.12
2022-12-08T21:54:16.714Z,76.42
2022-12-08T21:56:46.901Z,76.38
2022-12-08T21:59:13.487Z,76.63
2022-12-08T22:01:42.782Z,76.61
2022-12-08T22:04:11.606Z,76.07
2022-12-08T22:06:38.564Z,75.70
2022-12-08T22:09:06.663Z,76.16
2022-12-08T22:11:33.377Z,75.67
2022-12-08T22:14:00.017Z,75.08
2022-12-08T22:16:28.111Z,74.97
2022-12-08T22:18:55.191Z,75.34
2022-12-08T22:21:22.007Z,75.93
2022-12-08T22:23:48.992Z,75.78
2022-12-08T22:26:15.601Z,75.63
2022-12-08T22:28:42.866Z,75.75
2022-12-08T22:31:10.953Z,76.02
2022-12-08T22:33:38.494Z,75.94
2022-12-08T22:36:10.731Z,75.69
2022-12-08T22:38:37.864Z,75.18
2022-12-08T22:41:05.160Z,74.84
2022-12-08T22:43:32.616Z,74.19
2022-12-08T22:45:59.437Z,74.42
2022-12-08T22:48:26.249Z,73.23
2022-12-08T22:50:57.811Z,72.82
2022-12-08T22:53:24.304Z,72.37
2022-12-08T22:55:51.342Z,72.73
2022-12-08T22:58:18.199Z,73.02
2022-12-08T23:00:44.968Z,73.36
2022-12-08T23:03:11.717Z,73.88
2022-12-08T23:05:39.256Z,73.75
2022-12-08T23:08:07.651Z,72.93
2022-12-08T23:10:34.958Z,73.19
2022-12-08T23:13:03.905Z,73.46
2022-12-08T23:15:31.172Z,73.29
2022-12-08T23:17:57.819Z,73.46
2022-12-08T23:20:25.221Z,73.48
2022-12-08T23:22:52.521Z,73.76
2022-12-08T23:25:19.517Z,73.95
2022-12-08T23:27:46.150Z,74.29
2022-12-08T23:30:13.221Z,74.59
2022-12-08T23:32:40.132Z,74.86
2022-12-08T23:35:07.205Z,75.14
2022-12-08T23:37:34.156Z,75.34
2022-12-08T23:40:00.997Z,75.94
2022-12-08T23:42:29.553Z,75.30
2022-12-08T23:44:56.727Z,75.42
2022-12-08T23:47:23.496Z,75.25
2022-12-08T23:49:50.400Z,75.04
2022-12-08T23:52:17.048Z,74.97
2022-12-08T23:54:44.421Z,75.16
2022-12-08T23:57:11.230Z,75.05
2022-12-08T23:59:38.201Z,75.20
